< Typhoon 196021 1960 Season Typhoon 196023 >
Typhoon 196022 (KIT)
General InformationTrack Information on Google Maps || Disaster Info.ResourceGoogle EarthGE AnimationAtom FeedGeoJSON
Detalied Best Track (Time Zone = UTC)
Year Month Day Hour Lat. Long. Pressure (hPa) Wind (kt) Class Image Chart
1960 10 3 18 13.5 129.3 1004 0 2 -- Chart
1960 10 4 00 13.4 128.8 1002 0 2 -- Chart
1960 10 4 06 13.3 128.3 998 0 9 -- Chart
1960 10 4 12 13.0 128.0 998 0 9 -- Chart
1960 10 4 18 12.8 127.7 996 0 9 -- Chart
1960 10 5 00 12.7 127.4 992 0 9 -- Chart
1960 10 5 06 12.9 126.8 990 0 9 -- Chart
1960 10 5 12 13.0 126.1 985 0 9 -- Chart
1960 10 5 18 12.9 125.7 980 0 9 -- Chart
1960 10 6 00 12.8 125.3 970 0 9 -- Chart
1960 10 6 06 12.8 124.3 960 0 9 -- Chart
1960 10 6 12 12.9 123.5 965 0 9 -- Chart
1960 10 6 18 13.0 122.6 970 0 9 -- Chart
1960 10 7 00 13.0 121.7 970 0 9 -- Chart
1960 10 7 06 13.3 121.0 975 0 9 -- Chart
1960 10 7 12 13.5 120.3 980 0 9 -- Chart
1960 10 7 18 13.7 119.7 985 0 9 -- Chart
1960 10 8 00 13.9 119.0 990 0 9 -- Chart
1960 10 8 06 14.4 118.6 990 0 9 -- Chart
1960 10 8 12 15.2 118.2 990 0 9 -- Chart
1960 10 8 18 16.0 117.3 988 0 9 -- Chart
1960 10 9 00 16.8 116.5 985 0 9 -- Chart
1960 10 9 06 17.4 115.7 980 0 9 -- Chart
1960 10 9 12 17.7 115.0 975 0 9 -- Chart
1960 10 9 18 18.0 114.4 975 0 9 -- Chart
1960 10 10 00 18.2 113.8 975 0 9 -- Chart
1960 10 10 06 18.8 113.8 980 0 9 -- Chart
1960 10 10 12 19.0 113.0 975 0 9 -- Chart
1960 10 10 18 19.3 112.5 975 0 9 -- Chart
1960 10 11 00 19.7 112.0 980 0 9 -- Chart
1960 10 11 06 19.8 111.5 980 0 9 -- Chart
1960 10 11 12 19.8 111.0 980 0 9 -- Chart
1960 10 11 18 19.3 110.0 990 0 9 -- Chart
1960 10 12 00 19.0 109.6 990 0 9 -- Chart
1960 10 12 06 18.9 109.0 990 0 9 -- Chart
1960 10 12 12 18.8 108.3 990 0 9 -- Chart
1960 10 12 18 18.8 107.7 995 0 9 -- Chart
1960 10 13 00 18.7 107.2 1000 0 9 -- Chart
1960 10 13 06 18.6 106.6 1000 0 9 -- Chart
1960 10 13 12 18.5 106.0 1002 0 2 -- Chart
Japan Meteorological Agency Best Track Data | Correction Date : 1989-06-01
< Typhoon 196021 1960 Season Typhoon 196023 >

Help